createdAt,value
2023-05-03T00:00:17.332Z,64.10
2023-05-03T00:02:44.943Z,64.19
2023-05-03T00:05:15.253Z,64.22
2023-05-03T00:07:43.799Z,64.07
2023-05-03T00:10:16.029Z,63.96
2023-05-03T00:12:43.898Z,64.23
2023-05-03T00:15:11.324Z,63.73
2023-05-03T00:17:38.476Z,63.72
2023-05-03T00:20:05.965Z,63.76
2023-05-03T00:22:32.682Z,63.72
2023-05-03T00:24:59.991Z,63.71
2023-05-03T00:27:27.112Z,63.80
2023-05-03T00:29:53.731Z,63.76
2023-05-03T00:32:22.788Z,63.92
2023-05-03T00:34:56.755Z,63.94
2023-05-03T00:37:24.273Z,64.03
2023-05-03T00:39:50.892Z,64.34
2023-05-03T00:42:17.594Z,64.28
2023-05-03T00:44:44.216Z,64.07
2023-05-03T00:47:11.356Z,64.23
2023-05-03T00:49:38.879Z,63.91
2023-05-03T00:52:06.712Z,64.28
2023-05-03T00:54:35.360Z,64.09
2023-05-03T00:57:04.652Z,64.14
2023-05-03T00:59:32.785Z,64.04
2023-05-03T01:01:59.675Z,64.31
2023-05-03T01:04:26.931Z,64.00
2023-05-03T01:07:15.148Z,64.32
2023-05-03T01:09:51.749Z,64.30
2023-05-03T01:12:39.131Z,64.33
2023-05-03T01:15:12.798Z,64.55
2023-05-03T01:17:42.314Z,64.58
2023-05-03T01:20:14.244Z,64.56
2023-05-03T01:23:02.051Z,64.52
2023-05-03T01:25:28.702Z,64.79
2023-05-03T01:27:55.649Z,64.93
2023-05-03T01:30:25.615Z,64.81
2023-05-03T01:33:10.634Z,64.93
2023-05-03T01:35:54.907Z,64.97
2023-05-03T01:38:23.423Z,65.09
2023-05-03T01:40:52.738Z,65.12
2023-05-03T01:43:20.946Z,65.34
2023-05-03T01:45:48.710Z,65.21
2023-05-03T01:48:17.837Z,65.32
2023-05-03T01:50:44.635Z,65.38
2023-05-03T01:53:11.570Z,65.50
2023-05-03T01:55:38.156Z,65.39
2023-05-03T01:58:04.832Z,65.69
2023-05-03T02:00:31.553Z,65.68
2023-05-03T02:02:58.510Z,65.78
2023-05-03T02:05:26.130Z,65.67
2023-05-03T02:07:52.730Z,65.81
2023-05-03T02:10:19.335Z,65.76
2023-05-03T02:12:46.155Z,65.85
2023-05-03T02:15:13.905Z,66.31
2023-05-03T02:17:42.628Z,66.27
2023-05-03T02:20:12.716Z,66.17
2023-05-03T02:22:39.296Z,66.11
2023-05-03T02:25:06.864Z,66.32
2023-05-03T02:27:33.569Z,66.27
2023-05-03T02:30:01.369Z,66.29
2023-05-03T02:32:28.427Z,66.60
2023-05-03T02:34:55.400Z,66.27
2023-05-03T02:37:22.029Z,66.47
2023-05-03T02:39:48.644Z,66.55
2023-05-03T02:42:15.252Z,66.54
2023-05-03T02:44:41.861Z,66.62
2023-05-03T02:47:09.481Z,66.46
2023-05-03T02:49:36.131Z,66.66
2023-05-03T02:52:02.727Z,66.68
2023-05-03T02:54:29.321Z,66.67
2023-05-03T02:56:56.009Z,66.66
2023-05-03T02:59:22.544Z,66.84
2023-05-03T03:01:49.824Z,66.75
2023-05-03T03:04:16.477Z,66.90
2023-05-03T03:06:43.140Z,67.07
2023-05-03T03:09:09.943Z,67.01
2023-05-03T03:11:36.604Z,67.00
2023-05-03T03:14:03.429Z,66.78
2023-05-03T03:16:30.159Z,67.10
2023-05-03T03:18:56.974Z,67.26
2023-05-03T03:21:23.569Z,67.13
2023-05-03T03:23:50.271Z,67.28
2023-05-03T03:26:17.048Z,66.93
2023-05-03T03:28:43.622Z,67.16
2023-05-03T03:31:10.325Z,67.23
2023-05-03T03:33:36.970Z,67.44
2023-05-03T03:36:03.790Z,67.17
2023-05-03T03:38:30.343Z,67.26
2023-05-03T03:40:57.431Z,67.37
2023-05-03T03:43:23.992Z,67.25
2023-05-03T03:45:50.660Z,67.13
2023-05-03T03:48:17.368Z,67.38
2023-05-03T03:50:45.626Z,67.24
2023-05-03T03:53:12.744Z,67.06
2023-05-03T03:55:39.397Z,67.08
2023-05-03T03:58:06.162Z,66.99
2023-05-03T04:00:34.371Z,67.04
2023-05-03T04:03:01.114Z,67.21
2023-05-03T04:05:27.781Z,67.13
2023-05-03T04:07:54.310Z,67.11
2023-05-03T04:10:21.024Z,67.08
2023-05-03T04:12:47.570Z,67.28
2023-05-03T04:15:14.221Z,67.33
2023-05-03T04:17:40.772Z,67.34
2023-05-03T04:20:08.090Z,67.18
2023-05-03T04:22:34.681Z,67.31
2023-05-03T04:25:01.282Z,67.50
2023-05-03T04:27:28.664Z,67.44
2023-05-03T04:29:55.366Z,67.49
2023-05-03T04:32:23.352Z,67.65
2023-05-03T04:34:54.425Z,67.73
2023-05-03T04:37:22.708Z,68.03
2023-05-03T04:39:49.675Z,68.21
2023-05-03T04:42:16.658Z,67.82
2023-05-03T04:44:43.335Z,68.09
2023-05-03T04:47:09.926Z,68.09
2023-05-03T04:49:37.754Z,67.98
2023-05-03T04:52:04.788Z,67.90
2023-05-03T04:54:31.882Z,67.71
2023-05-03T04:56:58.463Z,67.80
2023-05-03T04:59:25.045Z,68.66
2023-05-03T05:01:51.631Z,68.62
2023-05-03T05:04:18.216Z,68.90
2023-05-03T05:06:44.852Z,69.08
2023-05-03T05:09:31.869Z,69.24
2023-05-03T05:11:58.451Z,70.20
2023-05-03T05:14:27.508Z,72.16
2023-05-03T05:16:54.231Z,74.14
2023-05-03T05:19:20.967Z,75.28
2023-05-03T05:21:48.159Z,76.99
2023-05-03T05:24:15.090Z,78.06
2023-05-03T05:26:43.596Z,76.63
2023-05-03T05:29:10.795Z,76.25
2023-05-03T05:31:37.436Z,74.85
2023-05-03T05:34:04.066Z,73.97
2023-05-03T05:36:31.424Z,74.31
2023-05-03T05:38:58.129Z,73.06
2023-05-03T05:41:24.875Z,72.99
2023-05-03T05:43:51.557Z,72.17
2023-05-03T05:46:21.134Z,72.07
2023-05-03T05:48:47.911Z,71.54
2023-05-03T05:51:14.608Z,71.64
2023-05-03T05:53:41.317Z,72.21
2023-05-03T05:56:08.941Z,71.99
2023-05-03T05:58:37.562Z,71.70
2023-05-03T06:01:05.021Z,72.21
2023-05-03T06:03:32.926Z,73.25
2023-05-03T06:05:59.812Z,73.11
2023-05-03T06:08:26.427Z,73.55
2023-05-03T06:10:53.498Z,73.13
2023-05-03T06:13:20.353Z,74.57
2023-05-03T06:15:47.051Z,75.32
2023-05-03T06:18:13.738Z,74.72
2023-05-03T06:20:40.818Z,75.16
2023-05-03T06:23:07.479Z,76.05
2023-05-03T06:25:36.234Z,75.65
2023-05-03T06:28:03.236Z,77.74
2023-05-03T06:30:30.251Z,75.86
2023-05-03T06:32:57.005Z,76.77
2023-05-03T06:35:23.865Z,74.52
2023-05-03T06:37:50.804Z,74.85
2023-05-03T06:40:18.265Z,73.76
2023-05-03T06:42:44.850Z,73.45
2023-05-03T06:45:12.151Z,73.37
2023-05-03T06:47:40.359Z,74.38
2023-05-03T06:50:07.609Z,74.47
2023-05-03T06:52:34.525Z,74.68
2023-05-03T06:55:01.516Z,74.93
2023-05-03T06:57:28.990Z,74.49
2023-05-03T06:59:55.771Z,73.97
2023-05-03T07:02:22.945Z,74.31
2023-05-03T07:04:49.584Z,74.21
2023-05-03T07:07:16.432Z,73.96
2023-05-03T07:09:44.029Z,73.40
2023-05-03T07:12:11.176Z,73.03
2023-05-03T07:14:39.252Z,73.60
2023-05-03T07:17:05.838Z,73.48
2023-05-03T07:19:32.628Z,74.05
2023-05-03T07:21:59.262Z,74.11
2023-05-03T07:24:26.174Z,74.37
2023-05-03T07:26:53.697Z,72.61
2023-05-03T07:29:21.385Z,73.43
2023-05-03T07:31:48.096Z,73.05
2023-05-03T07:34:14.979Z,72.99
2023-05-03T07:36:41.740Z,72.64
2023-05-03T07:39:08.681Z,74.20
2023-05-03T07:41:35.903Z,73.33
2023-05-03T07:44:02.461Z,73.91
2023-05-03T07:46:29.198Z,73.74
2023-05-03T07:48:55.860Z,73.89
2023-05-03T07:51:22.821Z,73.38
2023-05-03T07:53:49.464Z,73.19
2023-05-03T07:56:16.126Z,73.53
2023-05-03T07:58:43.784Z,73.61
2023-05-03T08:01:13.236Z,72.58
2023-05-03T08:03:40.070Z,72.07
2023-05-03T08:06:07.007Z,71.68
2023-05-03T08:08:33.969Z,71.60
2023-05-03T08:11:00.632Z,72.74
2023-05-03T08:13:27.257Z,72.51
2023-05-03T08:15:54.246Z,72.11
2023-05-03T08:18:23.521Z,71.70
2023-05-03T08:20:50.724Z,71.85
2023-05-03T08:23:17.835Z,70.36
2023-05-03T08:25:45.531Z,69.98
2023-05-03T08:28:12.772Z,70.29
2023-05-03T08:30:40.106Z,71.48
2023-05-03T08:33:09.822Z,69.47
2023-05-03T08:35:36.772Z,67.63
2023-05-03T08:38:05.157Z,66.62
2023-05-03T08:40:37.187Z,66.21
2023-05-03T08:43:10.162Z,65.78
2023-05-03T08:45:37.213Z,66.06
2023-05-03T08:48:04.818Z,64.43
2023-05-03T08:50:31.939Z,64.04
2023-05-03T08:52:59.440Z,63.83
2023-05-03T08:55:26.058Z,63.75
2023-05-03T08:57:52.753Z,63.10
2023-05-03T09:00:19.702Z,64.79
2023-05-03T09:02:46.794Z,67.03
2023-05-03T09:05:16.605Z,67.71
2023-05-03T09:08:05.053Z,67.95
2023-05-03T09:10:33.367Z,68.05
2023-05-03T09:13:02.094Z,67.41
2023-05-03T09:15:30.725Z,67.36
2023-05-03T09:18:27.198Z,67.44
2023-05-03T09:20:54.226Z,66.00
2023-05-03T09:23:27.029Z,65.67
2023-05-03T09:25:55.071Z,64.81
2023-05-03T09:28:21.885Z,64.49
2023-05-03T09:30:50.412Z,65.30
2023-05-03T09:33:21.466Z,65.89
2023-05-03T09:36:02.253Z,65.95
2023-05-03T09:38:38.794Z,65.29
2023-05-03T09:41:08.460Z,63.98
2023-05-03T09:43:38.149Z,62.64
2023-05-03T09:46:12.874Z,62.80
2023-05-03T09:48:40.557Z,63.66
2023-05-03T09:51:08.368Z,62.94
2023-05-03T09:53:37.045Z,62.20
2023-05-03T09:56:06.150Z,61.28
2023-05-03T09:58:35.217Z,61.14
2023-05-03T10:01:02.577Z,61.45
2023-05-03T10:03:40.057Z,60.64
2023-05-03T10:06:16.510Z,61.29
2023-05-03T10:08:49.745Z,62.57
2023-05-03T10:11:17.823Z,63.73
2023-05-03T10:13:45.280Z,63.68
2023-05-03T10:16:25.895Z,64.04
2023-05-03T10:19:31.274Z,62.84
2023-05-03T10:22:14.839Z,62.23
2023-05-03T10:25:02.689Z,63.76
2023-05-03T10:27:51.308Z,63.63
2023-05-03T10:30:34.807Z,63.20
2023-05-03T10:33:13.622Z,63.13
2023-05-03T10:35:42.151Z,62.46
2023-05-03T10:38:15.386Z,63.58
2023-05-03T10:40:43.403Z,64.04
2023-05-03T10:43:34.942Z,62.91
2023-05-03T10:46:06.818Z,62.74
2023-05-03T10:48:34.646Z,63.02
2023-05-03T10:51:38.907Z,63.39
2023-05-03T10:54:05.593Z,63.44
2023-05-03T10:56:32.253Z,62.95
2023-05-03T10:58:59.081Z,63.53
2023-05-03T11:01:28.180Z,63.78
2023-05-03T11:04:23.391Z,64.39
2023-05-03T11:06:52.062Z,64.60
2023-05-03T11:09:19.075Z,64.20
2023-05-03T11:11:46.116Z,64.50
2023-05-03T11:14:14.023Z,63.60
2023-05-03T11:16:47.776Z,63.21
2023-05-03T11:19:15.831Z,63.74
2023-05-03T11:21:43.304Z,63.48
2023-05-03T11:24:10.358Z,63.60
2023-05-03T11:26:38.064Z,63.03
2023-05-03T11:29:05.904Z,63.04
2023-05-03T11:31:32.751Z,63.05
2023-05-03T11:33:59.845Z,62.22
2023-05-03T11:36:27.927Z,62.79
2023-05-03T11:38:54.718Z,63.08
2023-05-03T11:41:21.823Z,63.64
2023-05-03T11:43:57.557Z,64.25
2023-05-03T11:46:35.388Z,64.72
2023-05-03T11:49:03.258Z,63.34
2023-05-03T11:51:31.466Z,63.49
2023-05-03T11:54:06.891Z,63.48
2023-05-03T11:56:39.973Z,65.24
2023-05-03T11:59:06.647Z,65.76
2023-05-03T12:01:33.333Z,66.22
2023-05-03T12:04:05.662Z,66.59
2023-05-03T12:06:35.332Z,66.08
2023-05-03T12:09:05.420Z,65.36
2023-05-03T12:11:44.736Z,65.73
2023-05-03T12:14:12.161Z,66.09
2023-05-03T12:16:51.410Z,67.01
2023-05-03T12:19:32.116Z,67.06
2023-05-03T12:22:22.830Z,67.05
2023-05-03T12:24:49.176Z,66.42
2023-05-03T12:27:19.015Z,66.96
2023-05-03T12:29:47.358Z,67.00
2023-05-03T12:32:14.416Z,67.73
2023-05-03T12:34:42.542Z,68.47
2023-05-03T12:37:11.976Z,69.24
2023-05-03T12:39:40.096Z,70.72
2023-05-03T12:42:09.393Z,71.08
2023-05-03T12:44:41.711Z,71.94
2023-05-03T12:47:10.020Z,72.59
2023-05-03T12:49:39.099Z,72.97
2023-05-03T12:52:35.303Z,72.89
2023-05-03T12:54:55.693Z,73.29
2023-05-03T12:57:23.942Z,73.82
2023-05-03T12:59:54.152Z,74.65
2023-05-03T13:04:59.557Z,75.07
2023-05-03T13:07:42.964Z,77.47
2023-05-03T13:12:40.782Z,82.13
2023-05-03T13:15:08.232Z,84.80
2023-05-03T13:17:35.031Z,83.45
2023-05-03T13:20:01.766Z,83.47
2023-05-03T13:22:28.719Z,85.21
2023-05-03T13:24:56.097Z,87.40
2023-05-03T13:27:23.346Z,87.33
2023-05-03T13:29:50.057Z,86.60
2023-05-03T13:32:16.998Z,85.84
2023-05-03T13:34:44.252Z,91.20
2023-05-03T13:37:11.728Z,99.25
2023-05-03T13:39:38.470Z,100.00
2023-05-03T13:42:05.041Z,100.00
2023-05-03T13:44:31.593Z,100.00
2023-05-03T13:46:58.277Z,100.00
2023-05-03T13:49:25.596Z,100.00
2023-05-03T13:51:52.466Z,100.00
2023-05-03T13:54:19.335Z,100.00
2023-05-03T13:56:46.090Z,100.00
2023-05-03T13:59:16.447Z,100.00
2023-05-03T14:01:43.528Z,100.00
2023-05-03T14:04:10.702Z,100.00
2023-05-03T14:06:40.293Z,100.00
2023-05-03T14:09:07.893Z,100.00
2023-05-03T14:11:34.826Z,100.00
2023-05-03T14:14:01.762Z,100.00
2023-05-03T14:18:58.325Z,100.00
2023-05-03T14:21:25.047Z,100.00
2023-05-03T14:23:51.670Z,100.00
2023-05-03T14:26:22.340Z,100.00
2023-05-03T14:28:48.955Z,100.00
2023-05-03T14:31:16.656Z,100.00
2023-05-03T14:33:43.493Z,100.00
2023-05-03T14:36:10.257Z,100.00
2023-05-03T14:38:38.336Z,100.00
2023-05-03T14:41:05.240Z,100.00
2023-05-03T14:43:32.509Z,100.00
2023-05-03T14:45:59.192Z,100.00
2023-05-03T14:48:25.817Z,100.00
2023-05-03T14:50:54.620Z,100.00
2023-05-03T14:53:22.720Z,100.00
2023-05-03T14:55:50.486Z,100.00
2023-05-03T14:58:17.166Z,100.00
2023-05-03T15:00:44.384Z,100.00
2023-05-03T15:03:12.532Z,100.00
2023-05-03T15:05:47.538Z,100.00
2023-05-03T15:08:16.004Z,100.00
2023-05-03T15:10:44.545Z,100.00
2023-05-03T15:13:12.047Z,100.00
2023-05-03T15:15:39.361Z,100.00
2023-05-03T15:18:09.586Z,100.00
2023-05-03T15:20:36.389Z,100.00
2023-05-03T15:23:05.201Z,100.00
2023-05-03T15:25:32.597Z,100.00
2023-05-03T15:28:01.873Z,100.00
2023-05-03T15:30:30.769Z,100.00
2023-05-03T15:32:57.510Z,100.00
2023-05-03T15:35:24.128Z,100.00
2023-05-03T15:37:51.307Z,100.00
2023-05-03T15:40:18.559Z,100.00
2023-05-03T15:42:45.216Z,100.00
2023-05-03T15:45:13.194Z,100.00
2023-05-03T15:47:40.072Z,100.00
2023-05-03T15:50:07.996Z,100.00
2023-05-03T15:52:35.199Z,100.00
2023-05-03T15:55:01.947Z,100.00
2023-05-03T15:57:30.189Z,100.00
2023-05-03T15:59:57.352Z,100.00
2023-05-03T16:02:24.164Z,100.00
2023-05-03T16:04:51.354Z,100.00
2023-05-03T16:07:18.547Z,100.00
2023-05-03T16:09:46.629Z,100.00
2023-05-03T16:12:13.303Z,100.00
2023-05-03T16:14:40.144Z,100.00
2023-05-03T16:17:07.014Z,100.00
2023-05-03T16:19:33.840Z,100.00
2023-05-03T16:22:00.805Z,100.00
2023-05-03T16:24:29.241Z,100.00
2023-05-03T16:26:56.680Z,100.00
2023-05-03T16:29:23.306Z,100.00
2023-05-03T16:31:50.057Z,100.00
2023-05-03T16:34:16.958Z,100.00
2023-05-03T16:36:44.569Z,100.00
2023-05-03T16:39:12.715Z,100.00
2023-05-03T16:41:39.840Z,100.00
2023-05-03T16:44:07.388Z,100.00
2023-05-03T16:46:39.374Z,100.00
2023-05-03T16:49:06.880Z,100.00
2023-05-03T16:51:34.393Z,100.00
2023-05-03T16:54:04.271Z,100.00
2023-05-03T16:56:31.571Z,100.00
2023-05-03T16:58:59.296Z,100.00
2023-05-03T17:01:26.612Z,100.00
2023-05-03T17:03:53.742Z,100.00
2023-05-03T17:06:20.527Z,100.00
2023-05-03T17:08:47.533Z,100.00
2023-05-03T17:11:15.033Z,100.00
2023-05-03T17:13:42.059Z,100.00
2023-05-03T17:16:11.084Z,100.00
2023-05-03T17:18:39.344Z,100.00
2023-05-03T17:21:07.993Z,100.00
2023-05-03T17:23:38.127Z,100.00
2023-05-03T17:26:08.792Z,100.00
2023-05-03T17:28:36.182Z,100.00
2023-05-03T17:31:03.459Z,100.00
2023-05-03T17:33:30.309Z,100.00
2023-05-03T17:35:57.149Z,100.00
2023-05-03T17:38:24.272Z,100.00
2023-05-03T17:40:50.987Z,100.00
2023-05-03T17:43:17.962Z,100.00
2023-05-03T17:45:46.047Z,100.00
2023-05-03T17:48:13.283Z,100.00
2023-05-03T17:50:41.664Z,100.00
2023-05-03T17:53:09.568Z,100.00
2023-05-03T17:55:38.590Z,100.00
2023-05-03T17:58:06.699Z,100.00
2023-05-03T18:00:33.877Z,100.00
2023-05-03T18:03:01.277Z,100.00
2023-05-03T18:05:28.195Z,100.00
2023-05-03T18:07:54.851Z,100.00
2023-05-03T18:10:22.474Z,100.00
2023-05-03T18:12:49.387Z,100.00
2023-05-03T18:15:16.487Z,100.00
2023-05-03T18:17:43.568Z,100.00
2023-05-03T18:20:10.672Z,100.00
2023-05-03T18:22:38.044Z,100.00
2023-05-03T18:25:07.728Z,100.00
2023-05-03T18:27:37.976Z,100.00
2023-05-03T18:30:06.991Z,100.00
2023-05-03T18:32:34.607Z,100.00
2023-05-03T18:35:01.511Z,100.00
2023-05-03T18:37:28.586Z,100.00
2023-05-03T18:39:55.242Z,100.00
2023-05-03T18:42:22.745Z,100.00
2023-05-03T18:44:49.931Z,100.00
2023-05-03T18:47:20.975Z,100.00
2023-05-03T18:49:52.790Z,100.00
2023-05-03T18:52:20.500Z,100.00
2023-05-03T18:54:47.797Z,100.00
2023-05-03T18:57:14.493Z,100.00
2023-05-03T18:59:52.590Z,100.00
2023-05-03T19:02:25.528Z,100.00
2023-05-03T19:04:52.805Z,100.00
2023-05-03T19:07:19.727Z,100.00
2023-05-03T19:09:46.327Z,100.00
2023-05-03T19:12:13.633Z,100.00
2023-05-03T19:14:43.078Z,100.00
2023-05-03T19:17:09.814Z,100.00
2023-05-03T19:19:36.558Z,100.00
2023-05-03T19:22:04.097Z,100.00
2023-05-03T19:24:31.586Z,100.00
2023-05-03T19:26:58.251Z,100.00
2023-05-03T19:29:24.857Z,100.00
2023-05-03T19:31:53.352Z,100.00
2023-05-03T19:34:20.147Z,100.00
2023-05-03T19:36:46.877Z,100.00
2023-05-03T19:39:13.890Z,100.00
2023-05-03T19:41:40.681Z,100.00
2023-05-03T19:44:07.815Z,100.00
2023-05-03T19:46:34.544Z,100.00
2023-05-03T19:49:01.726Z,100.00
2023-05-03T19:51:28.601Z,100.00
2023-05-03T19:53:56.023Z,100.00
2023-05-03T19:56:23.399Z,100.00
2023-05-03T19:58:50.826Z,100.00
2023-05-03T20:01:17.709Z,100.00
2023-05-03T20:03:44.575Z,100.00
2023-05-03T20:06:11.455Z,100.00
2023-05-03T20:08:38.166Z,100.00
2023-05-03T20:11:04.940Z,100.00
2023-05-03T20:13:32.138Z,100.00
2023-05-03T20:15:58.940Z,100.00
2023-05-03T20:18:25.852Z,100.00
2023-05-03T20:20:52.527Z,100.00
2023-05-03T20:23:19.120Z,100.00
2023-05-03T20:25:46.600Z,100.00
2023-05-03T20:28:13.374Z,100.00
2023-05-03T20:30:40.135Z,100.00
2023-05-03T20:33:06.933Z,100.00
2023-05-03T20:35:33.726Z,100.00
2023-05-03T20:38:00.252Z,100.00
2023-05-03T20:40:27.276Z,100.00
2023-05-03T20:42:53.942Z,100.00
2023-05-03T20:45:20.956Z,100.00
2023-05-03T20:47:47.733Z,100.00
2023-05-03T20:50:14.548Z,100.00
2023-05-03T20:52:41.219Z,100.00
2023-05-03T20:55:08.308Z,100.00
2023-05-03T20:57:39.593Z,100.00
2023-05-03T21:00:07.582Z,100.00
2023-05-03T21:02:34.524Z,100.00
2023-05-03T21:05:01.336Z,100.00
2023-05-03T21:07:28.970Z,100.00
2023-05-03T21:09:55.568Z,100.00
2023-05-03T21:12:22.668Z,100.00
2023-05-03T21:14:49.342Z,100.00
2023-05-03T21:17:16.081Z,100.00
2023-05-03T21:19:43.621Z,100.00
2023-05-03T21:22:11.609Z,100.00
2023-05-03T21:24:38.402Z,100.00
2023-05-03T21:27:05.061Z,100.00
2023-05-03T21:29:31.939Z,100.00
2023-05-03T21:31:58.549Z,100.00
2023-05-03T21:34:25.230Z,100.00
2023-05-03T21:36:51.880Z,100.00
2023-05-03T21:39:18.539Z,100.00
2023-05-03T21:41:45.960Z,100.00
2023-05-03T21:44:12.587Z,100.00
2023-05-03T21:46:42.997Z,100.00
2023-05-03T21:49:09.958Z,100.00
2023-05-03T21:51:36.902Z,100.00
2023-05-03T21:54:04.432Z,100.00
2023-05-03T21:56:31.054Z,100.00
2023-05-03T21:58:58.063Z,100.00
2023-05-03T22:01:24.899Z,100.00
2023-05-03T22:03:51.802Z,100.00
2023-05-03T22:06:19.331Z,100.00
2023-05-03T22:08:46.296Z,100.00
2023-05-03T22:11:12.844Z,100.00
2023-05-03T22:13:54.524Z,100.00
2023-05-03T22:16:25.889Z,100.00
2023-05-03T22:18:52.803Z,100.00
2023-05-03T22:21:19.657Z,100.00
2023-05-03T22:23:46.284Z,100.00
2023-05-03T22:26:13.262Z,100.00
2023-05-03T22:28:39.855Z,100.00
2023-05-03T22:31:06.508Z,100.00
2023-05-03T22:33:33.146Z,100.00
2023-05-03T22:36:00.116Z,100.00
2023-05-03T22:38:26.924Z,100.00
2023-05-03T22:40:53.555Z,100.00
2023-05-03T22:43:20.312Z,100.00
2023-05-03T22:45:47.273Z,100.00
2023-05-03T22:48:13.924Z,100.00
2023-05-03T22:50:40.470Z,100.00
2023-05-03T22:53:07.295Z,100.00
2023-05-03T22:55:33.953Z,100.00
2023-05-03T22:58:00.746Z,100.00
2023-05-03T23:00:28.084Z,100.00
2023-05-03T23:02:54.984Z,100.00
2023-05-03T23:05:21.902Z,100.00
2023-05-03T23:07:49.090Z,100.00
2023-05-03T23:10:15.697Z,100.00
2023-05-03T23:12:42.529Z,100.00
2023-05-03T23:15:10.522Z,100.00
2023-05-03T23:17:37.162Z,100.00
2023-05-03T23:20:05.810Z,100.00
2023-05-03T23:22:32.674Z,100.00
2023-05-03T23:25:00.094Z,100.00
2023-05-03T23:27:27.918Z,100.00
2023-05-03T23:29:55.301Z,100.00
2023-05-03T23:32:22.703Z,100.00
2023-05-03T23:34:49.933Z,100.00
2023-05-03T23:37:16.632Z,100.00
2023-05-03T23:39:44.663Z,100.00
2023-05-03T23:42:14.588Z,100.00
2023-05-03T23:44:53.791Z,100.00
2023-05-03T23:47:22.332Z,100.00
2023-05-03T23:49:49.071Z,100.00
2023-05-03T23:52:19.121Z,100.00
2023-05-03T23:54:45.867Z,100.00
2023-05-03T23:57:12.561Z,100.00
2023-05-03T23:59:39.847Z,100.00
